sensor_id;sensor_type;location;lat;lon;timestamp;pressure;altitude;pressure_sealevel;temperature;humidity
5500;BME280;2772;42.700;23.304;2023-04-26T00:02:17;94133.38;;;13.15;100.00
5500;BME280;2772;42.700;23.304;2023-04-26T00:04:45;94121.13;;;13.14;100.00
5500;BME280;2772;42.700;23.304;2023-04-26T00:07:12;94122.16;;;13.10;100.00
5500;BME280;2772;42.700;23.304;2023-04-26T00:09:40;94115.84;;;13.02;100.00
5500;BME280;2772;42.700;23.304;2023-04-26T00:12:10;94112.16;;;13.07;100.00
5500;BME280;2772;42.700;23.304;2023-04-26T00:14:37;94106.44;;;12.93;100.00
5500;BME280;2772;42.700;23.304;2023-04-26T00:17:04;94097.47;;;12.85;100.00
5500;BME280;2772;42.700;23.304;2023-04-26T00:19:31;94100.31;;;12.92;100.00
5500;BME280;2772;42.700;23.304;2023-04-26T00:21:58;94094.44;;;12.87;100.00
5500;BME280;2772;42.700;23.304;2023-04-26T00:24:24;94098.41;;;12.77;100.00
5500;BME280;2772;42.700;23.304;2023-04-26T00:26:53;94100.75;;;12.78;100.00
5500;BME280;2772;42.700;23.304;2023-04-26T00:29:21;94102.88;;;12.73;100.00
5500;BME280;2772;42.700;23.304;2023-04-26T00:31:47;94104.72;;;12.69;100.00
5500;BME280;2772;42.700;23.304;2023-04-26T00:34:14;94091.84;;;12.74;100.00
5500;BME280;2772;42.700;23.304;2023-04-26T00:36:41;94091.50;;;12.60;100.00
5500;BME280;2772;42.700;23.304;2023-04-26T00:39:08;94085.31;;;12.56;100.00
5500;BME280;2772;42.700;23.304;2023-04-26T00:41:35;94088.03;;;12.60;100.00
5500;BME280;2772;42.700;23.304;2023-04-26T00:44:02;94085.22;;;12.53;100.00
5500;BME280;2772;42.700;23.304;2023-04-26T00:46:30;94088.72;;;12.41;100.00
5500;BME280;2772;42.700;23.304;2023-04-26T00:48:57;94089.94;;;12.44;100.00
5500;BME280;2772;42.700;23.304;2023-04-26T00:51:24;94086.34;;;12.52;100.00
5500;BME280;2772;42.700;23.304;2023-04-26T00:53:51;94082.53;;;12.53;100.00
5500;BME280;2772;42.700;23.304;2023-04-26T00:56:18;94085.66;;;12.55;100.00
5500;BME280;2772;42.700;23.304;2023-04-26T00:58:46;94083.94;;;12.62;100.00
5500;BME280;2772;42.700;23.304;2023-04-26T01:01:13;94085.91;;;12.65;100.00
5500;BME280;2772;42.700;23.304;2023-04-26T01:03:41;94080.56;;;12.50;100.00
5500;BME280;2772;42.700;23.304;2023-04-26T01:06:08;94089.00;;;12.52;100.00
5500;BME280;2772;42.700;23.304;2023-04-26T01:08:35;94085.66;;;12.55;100.00
5500;BME280;2772;42.700;23.304;2023-04-26T01:11:03;94099.00;;;12.55;100.00
5500;BME280;2772;42.700;23.304;2023-04-26T01:13:30;94091.34;;;12.53;100.00
5500;BME280;2772;42.700;23.304;2023-04-26T01:15:57;94092.53;;;12.56;100.00
5500;BME280;2772;42.700;23.304;2023-04-26T01:18:25;94094.75;;;12.54;100.00
5500;BME280;2772;42.700;23.304;2023-04-26T01:20:53;94092.44;;;12.52;100.00
5500;BME280;2772;42.700;23.304;2023-04-26T01:23:22;94090.09;;;12.51;100.00
5500;BME280;2772;42.700;23.304;2023-04-26T01:25:49;94076.84;;;12.39;100.00
5500;BME280;2772;42.700;23.304;2023-04-26T01:28:16;94073.56;;;12.45;100.00
5500;BME280;2772;42.700;23.304;2023-04-26T01:30:42;94077.63;;;12.39;100.00
5500;BME280;2772;42.700;23.304;2023-04-26T01:33:09;94091.13;;;12.31;100.00
5500;BME280;2772;42.700;23.304;2023-04-26T01:35:36;94103.84;;;12.22;100.00
5500;BME280;2772;42.700;23.304;2023-04-26T01:38:02;94114.81;;;12.05;100.00
5500;BME280;2772;42.700;23.304;2023-04-26T01:40:31;94112.38;;;12.00;100.00
5500;BME280;2772;42.700;23.304;2023-04-26T01:42:57;94109.53;;;11.81;100.00
5500;BME280;2772;42.700;23.304;2023-04-26T01:45:24;94113.78;;;11.70;100.00
5500;BME280;2772;42.700;23.304;2023-04-26T01:47:51;94118.44;;;11.61;100.00
5500;BME280;2772;42.700;23.304;2023-04-26T01:50:18;94126.03;;;11.47;100.00
5500;BME280;2772;42.700;23.304;2023-04-26T01:52:45;94122.38;;;11.39;100.00
5500;BME280;2772;42.700;23.304;2023-04-26T01:55:12;94118.72;;;11.32;100.00
5500;BME280;2772;42.700;23.304;2023-04-26T01:57:40;94113.59;;;11.39;100.00
5500;BME280;2772;42.700;23.304;2023-04-26T02:00:08;94111.94;;;11.34;100.00
5500;BME280;2772;42.700;23.304;2023-04-26T02:02:35;94106.16;;;11.32;100.00
5500;BME280;2772;42.700;23.304;2023-04-26T02:05:02;94107.59;;;11.30;100.00
5500;BME280;2772;42.700;23.304;2023-04-26T02:07:29;94100.16;;;11.35;100.00
5500;BME280;2772;42.700;23.304;2023-04-26T02:09:56;94101.38;;;11.38;100.00
5500;BME280;2772;42.700;23.304;2023-04-26T02:12:22;94095.81;;;11.43;100.00
5500;BME280;2772;42.700;23.304;2023-04-26T02:14:50;94096.50;;;11.40;100.00
5500;BME280;2772;42.700;23.304;2023-04-26T02:17:17;94094.25;;;11.42;100.00
5500;BME280;2772;42.700;23.304;2023-04-26T02:19:45;94086.72;;;11.44;100.00
5500;BME280;2772;42.700;23.304;2023-04-26T02:22:12;94091.16;;;11.40;100.00
5500;BME280;2772;42.700;23.304;2023-04-26T02:24:39;94091.81;;;11.37;100.00
5500;BME280;2772;42.700;23.304;2023-04-26T02:27:06;94086.06;;;11.35;100.00
5500;BME280;2772;42.700;23.304;2023-04-26T02:29:32;94093.50;;;11.29;100.00
5500;BME280;2772;42.700;23.304;2023-04-26T02:32:02;94094.28;;;11.30;100.00
5500;BME280;2772;42.700;23.304;2023-04-26T02:34:29;94093.41;;;11.26;100.00
5500;BME280;2772;42.700;23.304;2023-04-26T02:36:56;94094.84;;;11.11;100.00
5500;BME280;2772;42.700;23.304;2023-04-26T02:39:22;94095.06;;;11.18;100.00
5500;BME280;2772;42.700;23.304;2023-04-26T02:41:50;94105.19;;;11.12;100.00
5500;BME280;2772;42.700;23.304;2023-04-26T02:44:17;94104.53;;;11.03;100.00
5500;BME280;2772;42.700;23.304;2023-04-26T02:46:43;94113.16;;;11.12;100.00
5500;BME280;2772;42.700;23.304;2023-04-26T02:49:11;94109.94;;;11.07;100.00
5500;BME280;2772;42.700;23.304;2023-04-26T02:51:38;94098.94;;;11.08;100.00
5500;BME280;2772;42.700;23.304;2023-04-26T02:54:05;94100.06;;;11.19;100.00
5500;BME280;2772;42.700;23.304;2023-04-26T02:56:31;94093.19;;;11.18;100.00
5500;BME280;2772;42.700;23.304;2023-04-26T02:58:58;94093.84;;;11.15;100.00
5500;BME280;2772;42.700;23.304;2023-04-26T03:01:25;94083.19;;;11.15;100.00
5500;BME280;2772;42.700;23.304;2023-04-26T03:03:51;94094.41;;;11.09;100.00
5500;BME280;2772;42.700;23.304;2023-04-26T03:06:19;94093.53;;;11.05;100.00
5500;BME280;2772;42.700;23.304;2023-04-26T03:08:46;94100.41;;;11.06;100.00
5500;BME280;2772;42.700;23.304;2023-04-26T03:11:13;94096.50;;;11.15;100.00
5500;BME280;2772;42.700;23.304;2023-04-26T03:13:39;94093.84;;;11.15;100.00
5500;BME280;2772;42.700;23.304;2023-04-26T03:16:06;94104.84;;;11.14;100.00
5500;BME280;2772;42.700;23.304;2023-04-26T03:18:33;94096.94;;;11.05;100.00
5500;BME280;2772;42.700;23.304;2023-04-26T03:21:00;94094.94;;;11.02;100.00
5500;BME280;2772;42.700;23.304;2023-04-26T03:23:28;94080.97;;;11.05;100.00
5500;BME280;2772;42.700;23.304;2023-04-26T03:25:55;94085.53;;;11.05;100.00
5500;BME280;2772;42.700;23.304;2023-04-26T03:28:22;94087.94;;;11.10;100.00
5500;BME280;2772;42.700;23.304;2023-04-26T03:30:49;94088.97;;;11.05;100.00
5500;BME280;2772;42.700;23.304;2023-04-26T03:33:16;94082.75;;;11.01;100.00
5500;BME280;2772;42.700;23.304;2023-04-26T03:35:43;94081.75;;;10.94;100.00
5500;BME280;2772;42.700;23.304;2023-04-26T03:38:09;94086.09;;;10.86;100.00
5500;BME280;2772;42.700;23.304;2023-04-26T03:40:38;94084.97;;;10.75;100.00
5500;BME280;2772;42.700;23.304;2023-04-26T03:43:04;94085.84;;;10.79;100.00
5500;BME280;2772;42.700;23.304;2023-04-26T03:45:31;94086.59;;;10.56;100.00
5500;BME280;2772;42.700;23.304;2023-04-26T03:47:58;94089.25;;;10.44;100.00
5500;BME280;2772;42.700;23.304;2023-04-26T03:50:24;94098.22;;;10.39;100.00
5500;BME280;2772;42.700;23.304;2023-04-26T03:52:51;94092.38;;;10.46;100.00
5500;BME280;2772;42.700;23.304;2023-04-26T03:55:18;94097.69;;;10.46;100.00
5500;BME280;2772;42.700;23.304;2023-04-26T03:57:46;94088.72;;;10.50;100.00
5500;BME280;2772;42.700;23.304;2023-04-26T04:00:13;94091.16;;;10.55;100.00
5500;BME280;2772;42.700;23.304;2023-04-26T04:02:40;94098.97;;;10.40;100.00
5500;BME280;2772;42.700;23.304;2023-04-26T04:05:07;94099.41;;;10.30;100.00
5500;BME280;2772;42.700;23.304;2023-04-26T04:07:34;94097.09;;;10.28;100.00
5500;BME280;2772;42.700;23.304;2023-04-26T04:10:01;94099.22;;;10.35;100.00
5500;BME280;2772;42.700;23.304;2023-04-26T04:12:28;94099.69;;;10.49;100.00
5500;BME280;2772;42.700;23.304;2023-04-26T04:14:56;94108.69;;;10.56;100.00
5500;BME280;2772;42.700;23.304;2023-04-26T04:17:22;94103.91;;;10.62;100.00
5500;BME280;2772;42.700;23.304;2023-04-26T04:19:49;94111.47;;;10.72;100.00
5500;BME280;2772;42.700;23.304;2023-04-26T04:22:16;94105.81;;;10.73;100.00
5500;BME280;2772;42.700;23.304;2023-04-26T04:24:44;94102.38;;;10.73;100.00
5500;BME280;2772;42.700;23.304;2023-04-26T04:27:11;94114.34;;;10.79;100.00
5500;BME280;2772;42.700;23.304;2023-04-26T04:29:38;94109.38;;;10.77;100.00
5500;BME280;2772;42.700;23.304;2023-04-26T04:32:06;94108.28;;;10.78;100.00
5500;BME280;2772;42.700;23.304;2023-04-26T04:34:33;94118.06;;;10.86;100.00
5500;BME280;2772;42.700;23.304;2023-04-26T04:37:01;94125.59;;;10.84;100.00
5500;BME280;2772;42.700;23.304;2023-04-26T04:39:28;94125.38;;;11.01;100.00
5500;BME280;2772;42.700;23.304;2023-04-26T04:41:55;94127.81;;;11.06;100.00
5500;BME280;2772;42.700;23.304;2023-04-26T04:44:22;94124.94;;;11.11;100.00
5500;BME280;2772;42.700;23.304;2023-04-26T04:46:51;94130.38;;;11.15;100.00
5500;BME280;2772;42.700;23.304;2023-04-26T04:49:19;94134.47;;;11.24;100.00
5500;BME280;2772;42.700;23.304;2023-04-26T04:51:46;94134.81;;;11.35;100.00
5500;BME280;2772;42.700;23.304;2023-04-26T04:54:14;94132.03;;;11.44;100.00
5500;BME280;2772;42.700;23.304;2023-04-26T04:56:41;94130.13;;;11.32;100.00
5500;BME280;2772;42.700;23.304;2023-04-26T04:59:07;94132.69;;;11.41;100.00
5500;BME280;2772;42.700;23.304;2023-04-26T05:01:34;94129.25;;;11.40;100.00
5500;BME280;2772;42.700;23.304;2023-04-26T05:04:02;94130.25;;;11.36;100.00
5500;BME280;2772;42.700;23.304;2023-04-26T05:06:31;94129.69;;;11.54;100.00
5500;BME280;2772;42.700;23.304;2023-04-26T05:08:58;94131.13;;;11.52;100.00
5500;BME280;2772;42.700;23.304;2023-04-26T05:11:24;94136.81;;;11.50;100.00
5500;BME280;2772;42.700;23.304;2023-04-26T05:13:51;94127.56;;;11.60;100.00
5500;BME280;2772;42.700;23.304;2023-04-26T05:16:18;94126.91;;;11.75;100.00
5500;BME280;2772;42.700;23.304;2023-04-26T05:18:45;94136.00;;;11.86;100.00
5500;BME280;2772;42.700;23.304;2023-04-26T05:21:11;94131.28;;;11.95;100.00
5500;BME280;2772;42.700;23.304;2023-04-26T05:23:39;94132.06;;;11.95;100.00
5500;BME280;2772;42.700;23.304;2023-04-26T05:26:06;94149.84;;;12.03;100.00
5500;BME280;2772;42.700;23.304;2023-04-26T05:28:33;94148.34;;;12.18;100.00
5500;BME280;2772;42.700;23.304;2023-04-26T05:31:00;94149.22;;;12.22;100.00
5500;BME280;2772;42.700;23.304;2023-04-26T05:33:27;94152.75;;;12.26;100.00
5500;BME280;2772;42.700;23.304;2023-04-26T05:35:53;94153.09;;;12.24;100.00
5500;BME280;2772;42.700;23.304;2023-04-26T05:38:22;94146.50;;;12.34;100.00
5500;BME280;2772;42.700;23.304;2023-04-26T05:40:50;94149.53;;;12.48;100.00
5500;BME280;2772;42.700;23.304;2023-04-26T05:43:17;94160.94;;;12.60;100.00
5500;BME280;2772;42.700;23.304;2023-04-26T05:45:49;94163.91;;;12.71;100.00
5500;BME280;2772;42.700;23.304;2023-04-26T05:48:16;94158.66;;;12.74;100.00
5500;BME280;2772;42.700;23.304;2023-04-26T05:50:43;94167.38;;;12.87;100.00
5500;BME280;2772;42.700;23.304;2023-04-26T05:53:10;94173.56;;;13.03;100.00
5500;BME280;2772;42.700;23.304;2023-04-26T05:55:36;94173.66;;;13.07;100.00
5500;BME280;2772;42.700;23.304;2023-04-26T05:58:05;94178.81;;;13.15;100.00
5500;BME280;2772;42.700;23.304;2023-04-26T06:00:32;94177.03;;;13.19;100.00
5500;BME280;2772;42.700;23.304;2023-04-26T06:02:58;94186.84;;;13.15;100.00
5500;BME280;2772;42.700;23.304;2023-04-26T06:05:25;94183.56;;;13.22;100.00
5500;BME280;2772;42.700;23.304;2023-04-26T06:07:52;94183.03;;;13.32;100.00
5500;BME280;2772;42.700;23.304;2023-04-26T06:10:19;94189.06;;;13.44;100.00
5500;BME280;2772;42.700;23.304;2023-04-26T06:12:46;94186.47;;;13.63;100.00
5500;BME280;2772;42.700;23.304;2023-04-26T06:15:14;94182.06;;;13.55;100.00
5500;BME280;2772;42.700;23.304;2023-04-26T06:17:41;94179.28;;;14.02;100.00
5500;BME280;2772;42.700;23.304;2023-04-26T06:20:08;94160.81;;;14.12;100.00
5500;BME280;2772;42.700;23.304;2023-04-26T06:22:36;94176.47;;;13.95;100.00
5500;BME280;2772;42.700;23.304;2023-04-26T06:25:04;94197.19;;;13.98;100.00
5500;BME280;2772;42.700;23.304;2023-04-26T06:27:31;94193.19;;;14.07;100.00
5500;BME280;2772;42.700;23.304;2023-04-26T06:29:58;94192.28;;;14.00;100.00
5500;BME280;2772;42.700;23.304;2023-04-26T06:32:26;94193.25;;;14.26;100.00
5500;BME280;2772;42.700;23.304;2023-04-26T06:34:53;94190.47;;;14.23;100.00
5500;BME280;2772;42.700;23.304;2023-04-26T06:37:19;94179.03;;;14.42;100.00
5500;BME280;2772;42.700;23.304;2023-04-26T06:39:46;94183.84;;;14.52;100.00
5500;BME280;2772;42.700;23.304;2023-04-26T06:42:13;94210.53;;;14.29;100.00
5500;BME280;2772;42.700;23.304;2023-04-26T06:44:40;94207.91;;;13.98;100.00
5500;BME280;2772;42.700;23.304;2023-04-26T06:47:06;94215.78;;;13.91;100.00
5500;BME280;2772;42.700;23.304;2023-04-26T06:49:35;94207.88;;;14.13;100.00
5500;BME280;2772;42.700;23.304;2023-04-26T06:52:02;94220.06;;;14.11;100.00
5500;BME280;2772;42.700;23.304;2023-04-26T06:54:31;94219.72;;;14.12;100.00
5500;BME280;2772;42.700;23.304;2023-04-26T06:56:58;94214.09;;;14.02;100.00
5500;BME280;2772;42.700;23.304;2023-04-26T06:59:25;94213.84;;;14.07;100.00
5500;BME280;2772;42.700;23.304;2023-04-26T07:01:51;94217.88;;;14.16;100.00
5500;BME280;2772;42.700;23.304;2023-04-26T07:04:19;94219.28;;;14.10;100.00
5500;BME280;2772;42.700;23.304;2023-04-26T07:06:47;94213.13;;;14.25;100.00
5500;BME280;2772;42.700;23.304;2023-04-26T07:09:14;94222.53;;;14.19;100.00
5500;BME280;2772;42.700;23.304;2023-04-26T07:11:41;94207.72;;;14.41;100.00
5500;BME280;2772;42.700;23.304;2023-04-26T07:14:09;94209.13;;;14.54;100.00
5500;BME280;2772;42.700;23.304;2023-04-26T07:16:37;94220.63;;;14.74;100.00
5500;BME280;2772;42.700;23.304;2023-04-26T07:19:03;94236.94;;;14.84;100.00
5500;BME280;2772;42.700;23.304;2023-04-26T07:21:31;94215.22;;;15.12;100.00
5500;BME280;2772;42.700;23.304;2023-04-26T07:23:59;94232.25;;;15.00;100.00
5500;BME280;2772;42.700;23.304;2023-04-26T07:26:25;94239.38;;;14.93;100.00
5500;BME280;2772;42.700;23.304;2023-04-26T07:28:52;94243.34;;;14.80;100.00
5500;BME280;2772;42.700;23.304;2023-04-26T07:31:19;94232.75;;;14.87;100.00
5500;BME280;2772;42.700;23.304;2023-04-26T07:33:46;94229.09;;;14.76;100.00
5500;BME280;2772;42.700;23.304;2023-04-26T07:36:13;94236.13;;;14.84;100.00
5500;BME280;2772;42.700;23.304;2023-04-26T07:38:40;94239.03;;;14.56;100.00
5500;BME280;2772;42.700;23.304;2023-04-26T07:41:08;94240.28;;;14.43;100.00
5500;BME280;2772;42.700;23.304;2023-04-26T07:43:34;94242.94;;;14.24;100.00
5500;BME280;2772;42.700;23.304;2023-04-26T07:46:01;94254.88;;;14.11;100.00
5500;BME280;2772;42.700;23.304;2023-04-26T07:48:28;94254.19;;;13.98;100.00
5500;BME280;2772;42.700;23.304;2023-04-26T07:50:55;94254.47;;;13.93;100.00
5500;BME280;2772;42.700;23.304;2023-04-26T07:53:22;94265.34;;;13.85;100.00
5500;BME280;2772;42.700;23.304;2023-04-26T07:55:49;94262.72;;;14.04;100.00
5500;BME280;2772;42.700;23.304;2023-04-26T07:58:18;94261.06;;;14.30;100.00
5500;BME280;2772;42.700;23.304;2023-04-26T08:00:45;94265.94;;;14.25;100.00
5500;BME280;2772;42.700;23.304;2023-04-26T08:03:14;94250.63;;;14.25;100.00
5500;BME280;2772;42.700;23.304;2023-04-26T08:05:40;94259.81;;;14.44;100.00
5500;BME280;2772;42.700;23.304;2023-04-26T08:08:07;94267.34;;;14.38;100.00
5500;BME280;2772;42.700;23.304;2023-04-26T08:10:34;94271.06;;;14.33;100.00
5500;BME280;2772;42.700;23.304;2023-04-26T08:13:00;94250.19;;;14.58;100.00
5500;BME280;2772;42.700;23.304;2023-04-26T08:15:29;94263.16;;;14.56;100.00
5500;BME280;2772;42.700;23.304;2023-04-26T08:17:57;94257.72;;;14.72;100.00
5500;BME280;2772;42.700;23.304;2023-04-26T08:20:24;94267.75;;;14.75;100.00
5500;BME280;2772;42.700;23.304;2023-04-26T08:22:54;94261.31;;;14.60;100.00
5500;BME280;2772;42.700;23.304;2023-04-26T08:25:21;94245.53;;;14.74;100.00
5500;BME280;2772;42.700;23.304;2023-04-26T08:27:48;94261.13;;;14.69;100.00
5500;BME280;2772;42.700;23.304;2023-04-26T08:30:15;94253.63;;;14.78;100.00
5500;BME280;2772;42.700;23.304;2023-04-26T08:32:43;94254.75;;;14.96;100.00
5500;BME280;2772;42.700;23.304;2023-04-26T08:35:11;94250.97;;;14.97;100.00
5500;BME280;2772;42.700;23.304;2023-04-26T08:37:37;94254.13;;;15.02;100.00
5500;BME280;2772;42.700;23.304;2023-04-26T08:40:06;94255.25;;;15.01;100.00
5500;BME280;2772;42.700;23.304;2023-04-26T08:42:38;94263.38;;;15.05;100.00
5500;BME280;2772;42.700;23.304;2023-04-26T08:45:07;94247.06;;;14.94;100.00
5500;BME280;2772;42.700;23.304;2023-04-26T08:47:39;94250.44;;;15.10;100.00
5500;BME280;2772;42.700;23.304;2023-04-26T08:50:10;94255.72;;;15.26;100.00
5500;BME280;2772;42.700;23.304;2023-04-26T08:52:39;94251.22;;;15.11;100.00
5500;BME280;2772;42.700;23.304;2023-04-26T08:55:07;94260.13;;;14.96;100.00
5500;BME280;2772;42.700;23.304;2023-04-26T08:57:34;94254.25;;;15.09;96.65
5500;BME280;2772;42.700;23.304;2023-04-26T09:00:03;94258.41;;;15.26;100.00
5500;BME280;2772;42.700;23.304;2023-04-26T09:02:34;94257.97;;;15.24;96.37
5500;BME280;2772;42.700;23.304;2023-04-26T09:05:01;94253.81;;;15.45;100.00
5500;BME280;2772;42.700;23.304;2023-04-26T09:07:31;94259.59;;;15.28;97.01
5500;BME280;2772;42.700;23.304;2023-04-26T09:09:58;94260.28;;;15.44;95.09
5500;BME280;2772;42.700;23.304;2023-04-26T09:12:26;94259.78;;;15.58;94.93
5500;BME280;2772;42.700;23.304;2023-04-26T09:14:53;94260.25;;;15.63;92.40
5500;BME280;2772;42.700;23.304;2023-04-26T09:17:24;94267.69;;;15.51;90.52
5500;BME280;2772;42.700;23.304;2023-04-26T09:19:51;94268.91;;;15.34;89.84
5500;BME280;2772;42.700;23.304;2023-04-26T09:22:27;94270.63;;;15.42;90.91
5500;BME280;2772;42.700;23.304;2023-04-26T09:24:55;94271.75;;;15.64;93.16
5500;BME280;2772;42.700;23.304;2023-04-26T09:27:31;94267.47;;;15.59;86.03
5500;BME280;2772;42.700;23.304;2023-04-26T09:30:02;94263.94;;;15.55;86.89
5500;BME280;2772;42.700;23.304;2023-04-26T09:32:42;94264.28;;;15.54;87.34
5500;BME280;2772;42.700;23.304;2023-04-26T09:35:20;94266.19;;;15.76;87.85
5500;BME280;2772;42.700;23.304;2023-04-26T09:37:50;94262.69;;;15.72;85.19
5500;BME280;2772;42.700;23.304;2023-04-26T09:40:19;94260.97;;;15.83;83.76
5500;BME280;2772;42.700;23.304;2023-04-26T09:42:55;94268.97;;;16.06;83.30
5500;BME280;2772;42.700;23.304;2023-04-26T09:45:23;94256.19;;;16.22;81.34
5500;BME280;2772;42.700;23.304;2023-04-26T09:47:50;94253.84;;;16.20;83.09
5500;BME280;2772;42.700;23.304;2023-04-26T09:50:27;94261.63;;;16.29;78.49
5500;BME280;2772;42.700;23.304;2023-04-26T09:52:54;94252.75;;;16.25;78.01
5500;BME280;2772;42.700;23.304;2023-04-26T09:55:29;94254.22;;;16.19;75.77
5500;BME280;2772;42.700;23.304;2023-04-26T09:57:57;94258.13;;;16.25;75.93
5500;BME280;2772;42.700;23.304;2023-04-26T10:00:25;94259.69;;;16.26;75.90
5500;BME280;2772;42.700;23.304;2023-04-26T10:02:53;94253.50;;;16.22;73.86
5500;BME280;2772;42.700;23.304;2023-04-26T10:05:20;94256.19;;;16.22;74.12
5500;BME280;2772;42.700;23.304;2023-04-26T10:07:48;94251.72;;;16.33;76.33
5500;BME280;2772;42.700;23.304;2023-04-26T10:10:17;94255.50;;;16.28;74.43
5500;BME280;2772;42.700;23.304;2023-04-26T10:12:46;94251.16;;;16.46;73.49
5500;BME280;2772;42.700;23.304;2023-04-26T10:15:14;94244.03;;;16.57;72.69
5500;BME280;2772;42.700;23.304;2023-04-26T10:17:40;94252.81;;;16.54;70.41
5500;BME280;2772;42.700;23.304;2023-04-26T10:20:10;94248.97;;;16.55;67.83
5500;BME280;2772;42.700;23.304;2023-04-26T10:22:44;94255.19;;;16.59;65.73
5500;BME280;2772;42.700;23.304;2023-04-26T10:25:11;94246.44;;;16.40;67.42
5500;BME280;2772;42.700;23.304;2023-04-26T10:27:52;94245.69;;;16.39;75.92
5500;BME280;2772;42.700;23.304;2023-04-26T10:30:20;94234.94;;;16.39;74.37
5500;BME280;2772;42.700;23.304;2023-04-26T10:33:20;94244.91;;;16.39;68.78
5500;BME280;2772;42.700;23.304;2023-04-26T10:36:05;94250.88;;;16.51;66.45
5500;BME280;2772;42.700;23.304;2023-04-26T10:38:33;94252.34;;;16.23;63.85
5500;BME280;2772;42.700;23.304;2023-04-26T10:41:32;94247.66;;;16.42;67.15
5500;BME280;2772;42.700;23.304;2023-04-26T10:44:36;94240.31;;;16.39;64.81
5500;BME280;2772;42.700;23.304;2023-04-26T10:47:04;94238.75;;;16.38;62.44
5500;BME280;2772;42.700;23.304;2023-04-26T10:49:43;94246.16;;;16.45;66.18
5500;BME280;2772;42.700;23.304;2023-04-26T10:52:12;94245.72;;;16.43;64.57
5500;BME280;2772;42.700;23.304;2023-04-26T10:54:47;94242.38;;;16.49;63.78
5500;BME280;2772;42.700;23.304;2023-04-26T10:57:15;94254.38;;;16.55;63.33
5500;BME280;2772;42.700;23.304;2023-04-26T11:00:20;94242.06;;;16.54;67.13
5500;BME280;2772;42.700;23.304;2023-04-26T11:03:04;94246.34;;;16.59;62.83
5500;BME280;2772;42.700;23.304;2023-04-26T11:05:37;94239.81;;;16.60;61.88
5500;BME280;2772;42.700;23.304;2023-04-26T11:08:06;94239.69;;;16.49;58.95
5500;BME280;2772;42.700;23.304;2023-04-26T11:10:36;94236.59;;;16.47;58.39
5500;BME280;2772;42.700;23.304;2023-04-26T11:13:03;94238.88;;;16.45;59.74
5500;BME280;2772;42.700;23.304;2023-04-26T11:15:32;94234.88;;;16.62;63.98
5500;BME280;2772;42.700;23.304;2023-04-26T11:18:01;94233.69;;;16.92;64.02
5500;BME280;2772;42.700;23.304;2023-04-26T11:20:29;94227.25;;;17.00;60.65
5500;BME280;2772;42.700;23.304;2023-04-26T11:22:57;94237.13;;;16.89;58.87
5500;BME280;2772;42.700;23.304;2023-04-26T11:25:24;94233.88;;;16.73;58.19
5500;BME280;2772;42.700;23.304;2023-04-26T11:27:57;94243.34;;;16.64;58.35
5500;BME280;2772;42.700;23.304;2023-04-26T11:30:24;94243.22;;;16.86;59.36
5500;BME280;2772;42.700;23.304;2023-04-26T11:32:52;94228.66;;;16.87;58.68
5500;BME280;2772;42.700;23.304;2023-04-26T11:35:20;94233.19;;;16.80;59.30
5500;BME280;2772;42.700;23.304;2023-04-26T11:37:47;94237.91;;;16.90;58.92
5500;BME280;2772;42.700;23.304;2023-04-26T11:40:16;94234.25;;;17.08;61.74
5500;BME280;2772;42.700;23.304;2023-04-26T11:42:43;94223.69;;;17.26;65.94
5500;BME280;2772;42.700;23.304;2023-04-26T11:45:10;94229.91;;;17.33;57.21
5500;BME280;2772;42.700;23.304;2023-04-26T11:47:37;94239.69;;;17.45;56.59
5500;BME280;2772;42.700;23.304;2023-04-26T11:50:07;94232.19;;;17.31;57.27
5500;BME280;2772;42.700;23.304;2023-04-26T11:52:35;94226.44;;;17.29;56.70
5500;BME280;2772;42.700;23.304;2023-04-26T11:55:04;94225.56;;;17.59;60.58
5500;BME280;2772;42.700;23.304;2023-04-26T11:57:32;94222.38;;;17.46;54.80
5500;BME280;2772;42.700;23.304;2023-04-26T12:00:12;94233.94;;;17.47;54.94
5500;BME280;2772;42.700;23.304;2023-04-26T12:02:43;94230.91;;;17.52;57.57
5500;BME280;2772;42.700;23.304;2023-04-26T12:05:19;94231.31;;;17.20;56.91
5500;BME280;2772;42.700;23.304;2023-04-26T12:07:49;94235.47;;;17.11;57.87
5500;BME280;2772;42.700;23.304;2023-04-26T12:10:18;94226.50;;;17.03;56.93
5500;BME280;2772;42.700;23.304;2023-04-26T12:12:48;94229.25;;;17.07;57.14
5500;BME280;2772;42.700;23.304;2023-04-26T12:15:16;94231.31;;;17.20;59.28
5500;BME280;2772;42.700;23.304;2023-04-26T12:17:57;94221.78;;;17.30;57.72
5500;BME280;2772;42.700;23.304;2023-04-26T12:20:30;94223.16;;;17.47;55.53
5500;BME280;2772;42.700;23.304;2023-04-26T12:22:58;94221.72;;;17.60;56.79
5500;BME280;2772;42.700;23.304;2023-04-26T12:25:26;94215.44;;;17.45;56.50
5500;BME280;2772;42.700;23.304;2023-04-26T12:27:53;94210.97;;;17.63;55.32
5500;BME280;2772;42.700;23.304;2023-04-26T12:30:20;94219.72;;;17.50;54.29
5500;BME280;2772;42.700;23.304;2023-04-26T12:32:47;94218.47;;;17.43;55.80
5500;BME280;2772;42.700;23.304;2023-04-26T12:35:14;94227.69;;;17.39;55.02
5500;BME280;2772;42.700;23.304;2023-04-26T12:37:42;94226.81;;;17.31;55.53
5500;BME280;2772;42.700;23.304;2023-04-26T12:40:10;94227.13;;;17.23;56.00
5500;BME280;2772;42.700;23.304;2023-04-26T12:42:37;94224.53;;;16.97;57.07
5500;BME280;2772;42.700;23.304;2023-04-26T12:45:05;94207.00;;;16.77;58.00
5500;BME280;2772;42.700;23.304;2023-04-26T12:47:32;94227.59;;;16.62;60.10
5500;BME280;2772;42.700;23.304;2023-04-26T12:49:59;94215.06;;;16.47;60.80
5500;BME280;2772;42.700;23.304;2023-04-26T12:52:25;94218.19;;;16.49;60.11
5500;BME280;2772;42.700;23.304;2023-04-26T12:54:54;94226.72;;;16.55;59.59
5500;BME280;2772;42.700;23.304;2023-04-26T12:57:20;94214.50;;;16.61;58.09
5500;BME280;2772;42.700;23.304;2023-04-26T12:59:47;94225.66;;;16.63;55.60
5500;BME280;2772;42.700;23.304;2023-04-26T13:02:14;94232.31;;;16.72;58.93
5500;BME280;2772;42.700;23.304;2023-04-26T13:04:41;94228.50;;;16.73;59.99
5500;BME280;2772;42.700;23.304;2023-04-26T13:07:07;94216.50;;;16.67;61.53
5500;BME280;2772;42.700;23.304;2023-04-26T13:09:34;94227.13;;;16.31;64.10